Williamston, Michigan
Current Conditions -  °F | °C
As of 12:34 AM on Monday 22 Dec 2014 (Local Time) from KTEW Reporting Station
Haze Haze  
Wind Chill: 19°   Ceiling: Unl
Heat Index: 28°   Visibility: 5mi
Dew Point: 24°   Wind: 9mph
Humidity: 88%   Direction: 140°SE
Pressure: 30.13"   Gusts: NA
Location:  42.69°N, 84.28°W
Report Text: KTEW 220534Z AUTO 14008KT 5SM BR CLR M02/M04 A3013 RMK AO2 T10251043
Loading
Personal Weather Stations






























Interactive Weather Map New forecast layout! Learn more

10-Day Weather Forecast

Advertisements
Track Severe Weather on mobile